Voyager — C6WC2 — position and weather

sailwx.info

Track history (hours):
 
Tides and Currents Weather Stations Pressure Air Temp Water Temp Dewpoint Dewpoint Depression Visibility Wind Speed Wind Dir Waves Ship Positions

Voyager

Last reported at 2016-Oct-11 20:33 UTC. Time now 2016-Dec-02 18:06 UTC.
Position N 39°53' E 024°11'.
Warning: this ship's position is 51 days out of date.

Length 151 m; draft 6 m.

Type: Ship. MMSI: 309695000.

Date/timePositionNaut miles runAvg speedWind from/ knotsBaromVisibWave heightAir tempDewpointWater temp
2016-Oct-11 20:33N 39°53' E 024°11'3812.6
2016-Oct-11 17:32N 40°30' E 024°25'26 8.7
2016-Oct-11 14:31N 40°56' E 024°25'0 0.0
2016-Oct-11 09:31N 40°56' E 024°25'208 6.3
2016-Oct-10 00:20N 41°02' E 028°60'14 7.8
2016-Oct-09 22:33N 40°51' E 028°48'29610.2
2016-Oct-08 17:33N 37°56' E 023°38'0 0.0
2016-Oct-08 16:30N 37°56' E 023°38'0 0.0
2016-Oct-08 15:27N 37°56' E 023°38'0 0.0
2016-Oct-08 14:33N 37°56' E 023°38'0 0.0
2016-Oct-08 13:30N 37°56' E 023°38'0 0.0
2016-Oct-08 10:27N 37°56' E 023°38'0 0.0
2016-Oct-08 09:33N 37°56' E 023°38'0 0.0
2016-Oct-08 07:24N 37°56' E 023°38'0 0.0
2016-Oct-08 06:27N 37°56' E 023°38'23 4.0
2016-Oct-08 00:33N 37°33' E 023°43'  
2016-Oct-02 18:13N 39°53' E 025°49'  
Track history (hours):
 
Tides and Currents Weather Stations Pressure Air Temp Water Temp Dewpoint Dewpoint Depression Visibility Wind Speed Wind Dir Waves Ship Positions

Voyager

Last reported at 2016-Oct-11 20:33 UTC. Time now 2016-Dec-02 18:06 UTC.
Position N 39°53' E 024°11'.
Warning: this ship's position is 51 days out of date.

Length 151 m; draft 6 m.

Type: Ship. MMSI: 309695000.

Date/timePositionNaut miles runAvg speedWind from/ knotsBaromVisibWave heightAir tempDewpointWater temp
2016-Oct-11 20:33N 39°53' E 024°11'3812.6
2016-Oct-11 17:32N 40°30' E 024°25'26 8.7
2016-Oct-11 14:31N 40°56' E 024°25'0 0.0
2016-Oct-11 09:31N 40°56' E 024°25'208 6.3
2016-Oct-10 00:20N 41°02' E 028°60'14 7.8
2016-Oct-09 22:33N 40°51' E 028°48'29610.2
2016-Oct-08 17:33N 37°56' E 023°38'0 0.0
2016-Oct-08 16:30N 37°56' E 023°38'0 0.0
2016-Oct-08 15:27N 37°56' E 023°38'0 0.0
2016-Oct-08 14:33N 37°56' E 023°38'0 0.0
2016-Oct-08 13:30N 37°56' E 023°38'0 0.0
2016-Oct-08 10:27N 37°56' E 023°38'0 0.0
2016-Oct-08 09:33N 37°56' E 023°38'0 0.0
2016-Oct-08 07:24N 37°56' E 023°38'0 0.0
2016-Oct-08 06:27N 37°56' E 023°38'23 4.0
2016-Oct-08 00:33N 37°33' E 023°43'  
2016-Oct-02 18:13N 39°53' E 025°49'  

Dump ship's entire track history